createdAt,value
2019-01-25T00:00:51.083Z,18.80
2019-01-25T00:03:17.497Z,17.50
2019-01-25T00:05:44.099Z,19.27
2019-01-25T00:08:11.170Z,16.70
2019-01-25T00:10:37.962Z,16.65
2019-01-25T00:13:04.370Z,17.50
2019-01-25T00:15:30.873Z,18.50
2019-01-25T00:17:58.096Z,17.32
2019-01-25T00:20:24.745Z,16.95
2019-01-25T00:22:51.383Z,16.45
2019-01-25T00:25:17.712Z,17.17
2019-01-25T00:27:44.845Z,16.85
2019-01-25T00:30:11.912Z,17.32
2019-01-25T00:32:39.071Z,17.70
2019-01-25T00:35:06.308Z,17.67
2019-01-25T00:37:32.968Z,18.25
2019-01-25T00:40:06.143Z,16.57
2019-01-25T00:42:29.508Z,17.15
2019-01-25T00:44:55.808Z,17.77
2019-01-25T00:47:22.308Z,17.95
2019-01-25T00:49:49.203Z,17.40
2019-01-25T00:52:15.820Z,18.15
2019-01-25T00:54:42.481Z,19.35
2019-01-25T00:57:09.204Z,18.00
2019-01-25T00:59:35.885Z,31.37
2019-01-25T01:02:02.795Z,23.07
2019-01-25T01:04:29.541Z,20.90
2019-01-25T01:06:55.960Z,18.20
2019-01-25T01:09:22.919Z,17.35
2019-01-25T01:11:49.586Z,17.57
2019-01-25T01:14:17.140Z,17.12
2019-01-25T01:16:44.047Z,17.75
2019-01-25T01:19:10.700Z,18.23
2019-01-25T01:21:37.116Z,18.10
2019-01-25T01:24:04.003Z,18.15
2019-01-25T01:26:31.059Z,18.25
2019-01-25T01:28:57.504Z,17.73
2019-01-25T01:31:24.260Z,19.67
2019-01-25T01:33:50.643Z,18.90
2019-01-25T01:36:17.150Z,18.23
2019-01-25T01:38:43.544Z,17.82
2019-01-25T01:41:09.952Z,18.70
2019-01-25T01:43:36.590Z,18.32
2019-01-25T01:46:03.623Z,18.20
2019-01-25T01:48:30.039Z,18.55
2019-01-25T01:50:56.497Z,17.05
2019-01-25T01:53:23.415Z,17.10
2019-01-25T01:55:49.829Z,25.45
2019-01-25T01:58:16.923Z,16.75
2019-01-25T02:00:43.839Z,16.48
2019-01-25T02:03:10.547Z,18.05
2019-01-25T02:05:37.434Z,17.30
2019-01-25T02:08:03.844Z,18.73
2019-01-25T02:10:31.099Z,16.10
2019-01-25T02:12:57.802Z,17.00
2019-01-25T02:15:24.293Z,18.15
2019-01-25T02:17:50.711Z,16.25
2019-01-25T02:20:18.679Z,17.87
2019-01-25T02:22:46.138Z,16.70
2019-01-25T02:25:13.278Z,17.70
2019-01-25T02:27:39.674Z,16.50
2019-01-25T02:30:08.231Z,18.15
2019-01-25T02:32:34.647Z,16.15
2019-01-25T02:35:01.329Z,16.25
2019-01-25T02:37:28.577Z,15.30
2019-01-25T02:39:55.011Z,15.95
2019-01-25T02:42:21.891Z,17.62
2019-01-25T02:44:48.198Z,16.55
2019-01-25T02:47:14.603Z,16.65
2019-01-25T02:49:41.182Z,15.00
2019-01-25T02:52:07.507Z,17.70
2019-01-25T02:54:33.916Z,17.35
2019-01-25T02:57:00.788Z,16.07
2019-01-25T02:59:27.963Z,16.75
2019-01-25T03:01:54.339Z,16.52
2019-01-25T03:04:20.868Z,17.30
2019-01-25T03:06:47.244Z,19.23
2019-01-25T03:09:14.173Z,17.70
2019-01-25T03:11:41.036Z,16.65
2019-01-25T03:14:07.378Z,16.48
2019-01-25T03:16:34.303Z,16.93
2019-01-25T03:19:03.290Z,17.05
2019-01-25T03:21:29.728Z,16.17
2019-01-25T03:23:56.027Z,16.93
2019-01-25T03:26:22.823Z,16.20
2019-01-25T03:28:49.532Z,16.25
2019-01-25T03:31:16.926Z,15.08
2019-01-25T03:33:44.267Z,16.48
2019-01-25T03:36:10.892Z,17.98
2019-01-25T03:38:37.631Z,17.65
2019-01-25T03:41:04.035Z,17.02
2019-01-25T03:43:31.514Z,17.10
2019-01-25T03:45:58.460Z,18.98
2019-01-25T03:48:24.875Z,17.77
2019-01-25T03:50:51.261Z,17.92
2019-01-25T03:53:18.281Z,16.25
2019-01-25T03:55:45.364Z,17.62
2019-01-25T03:58:12.094Z,16.57
2019-01-25T04:00:39.020Z,15.90
2019-01-25T04:03:05.445Z,18.05
2019-01-25T04:05:31.823Z,17.67
2019-01-25T04:07:58.331Z,18.05
2019-01-25T04:10:26.352Z,18.07
2019-01-25T04:12:53.316Z,19.17
2019-01-25T04:15:20.843Z,15.10
2019-01-25T04:17:47.508Z,18.60
2019-01-25T04:20:14.215Z,17.80
2019-01-25T04:22:41.168Z,18.37
2019-01-25T04:25:08.972Z,17.32
2019-01-25T04:27:35.590Z,18.25
2019-01-25T04:30:01.988Z,18.25
2019-01-25T04:32:29.582Z,16.82
2019-01-25T04:34:56.249Z,16.52
2019-01-25T04:37:22.556Z,18.42
2019-01-25T04:39:49.289Z,17.65
2019-01-25T04:42:16.056Z,18.45
2019-01-25T04:44:42.962Z,19.60
2019-01-25T04:47:09.728Z,20.08
2019-01-25T04:49:36.648Z,17.80
2019-01-25T04:52:07.797Z,18.87
2019-01-25T04:54:34.443Z,18.12
2019-01-25T04:57:00.760Z,19.15
2019-01-25T04:59:28.683Z,17.67
2019-01-25T05:01:55.493Z,17.62
2019-01-25T05:04:21.943Z,17.82
2019-01-25T05:06:48.873Z,18.73
2019-01-25T05:09:15.531Z,18.98
2019-01-25T05:11:41.984Z,17.77
2019-01-25T05:14:08.373Z,19.05
2019-01-25T05:16:35.107Z,18.30
2019-01-25T05:19:02.355Z,18.23
2019-01-25T05:21:29.615Z,18.85
2019-01-25T05:23:55.924Z,18.25
2019-01-25T05:26:23.283Z,18.50
2019-01-25T05:28:49.687Z,17.20
2019-01-25T05:31:17.352Z,17.77
2019-01-25T05:33:50.267Z,15.58
2019-01-25T05:36:16.561Z,17.57
2019-01-25T05:38:46.768Z,18.05
2019-01-25T05:41:14.071Z,18.10
2019-01-25T05:43:40.983Z,18.27
2019-01-25T05:46:07.307Z,16.87
2019-01-25T05:48:33.723Z,17.87
2019-01-25T05:51:01.349Z,16.90
2019-01-25T05:53:28.807Z,17.73
2019-01-25T05:55:55.198Z,19.37
2019-01-25T05:58:22.698Z,19.27
2019-01-25T06:00:49.015Z,17.95
2019-01-25T06:03:15.403Z,19.32
2019-01-25T06:05:42.415Z,18.75
2019-01-25T06:08:28.883Z,22.95
2019-01-25T06:10:56.575Z,18.30
2019-01-25T06:13:22.867Z,18.95
2019-01-25T06:15:49.164Z,21.70
2019-01-25T06:18:16.633Z,19.73
2019-01-25T06:20:45.558Z,19.15
2019-01-25T06:23:12.620Z,20.70
2019-01-25T06:25:39.243Z,19.30
2019-01-25T06:28:05.870Z,19.15
2019-01-25T06:30:32.839Z,18.17
2019-01-25T06:33:00.059Z,19.98
2019-01-25T06:35:27.268Z,17.90
2019-01-25T06:37:55.199Z,21.05
2019-01-25T06:40:21.872Z,19.15
2019-01-25T06:42:48.161Z,18.87
2019-01-25T06:45:15.122Z,17.90
2019-01-25T06:47:42.295Z,18.37
2019-01-25T06:50:08.899Z,18.60
2019-01-25T06:52:35.828Z,21.00
2019-01-25T06:55:03.025Z,19.65
2019-01-25T06:57:44.579Z,19.05
2019-01-25T07:00:12.139Z,20.17
2019-01-25T07:02:40.514Z,21.12
2019-01-25T07:05:07.984Z,20.50
2019-01-25T07:07:36.831Z,21.17
2019-01-25T07:10:04.280Z,21.77
2019-01-25T07:12:30.588Z,21.68
2019-01-25T07:14:56.907Z,20.30
2019-01-25T07:17:23.315Z,22.25
2019-01-25T07:19:49.951Z,21.02
2019-01-25T07:22:16.802Z,20.50
2019-01-25T07:24:43.440Z,20.97
2019-01-25T07:27:10.270Z,22.77
2019-01-25T07:29:37.375Z,21.37
2019-01-25T07:32:03.956Z,20.17
2019-01-25T07:34:30.599Z,21.80
2019-01-25T07:36:57.018Z,21.05
2019-01-25T07:39:25.191Z,21.73
2019-01-25T07:41:59.180Z,21.60
2019-01-25T07:44:23.417Z,21.12
2019-01-25T07:46:50.452Z,21.27
2019-01-25T07:49:17.006Z,21.50
2019-01-25T07:51:43.739Z,20.88
2019-01-25T07:54:10.028Z,21.80
2019-01-25T07:56:36.315Z,19.75
2019-01-25T07:59:02.824Z,21.15
2019-01-25T08:01:30.065Z,22.50
2019-01-25T08:03:56.675Z,22.00
2019-01-25T08:06:23.400Z,22.37
2019-01-25T08:08:50.295Z,22.32
2019-01-25T08:11:16.927Z,21.10
2019-01-25T08:13:43.399Z,21.30
2019-01-25T08:16:10.122Z,21.30
2019-01-25T08:18:37.400Z,22.60
2019-01-25T08:21:05.257Z,21.00
2019-01-25T08:23:32.815Z,21.52
2019-01-25T08:25:59.339Z,24.25
2019-01-25T08:28:25.740Z,27.50
2019-01-25T08:30:52.068Z,20.90
2019-01-25T08:33:18.799Z,23.10
2019-01-25T08:35:45.217Z,20.52
2019-01-25T08:38:11.745Z,26.52
2019-01-25T08:40:38.496Z,22.02
2019-01-25T08:43:05.166Z,22.27
2019-01-25T08:45:31.600Z,20.62
2019-01-25T08:47:57.944Z,22.05
2019-01-25T08:50:24.520Z,22.45
2019-01-25T08:52:51.396Z,22.10
2019-01-25T08:55:18.317Z,21.82
2019-01-25T08:57:45.260Z,21.80
2019-01-25T09:00:14.271Z,21.55
2019-01-25T09:02:42.791Z,20.43
2019-01-25T09:05:10.154Z,23.62
2019-01-25T09:07:36.880Z,21.93
2019-01-25T09:10:04.705Z,22.58
2019-01-25T09:12:31.585Z,20.40
2019-01-25T09:14:58.383Z,23.27
2019-01-25T09:17:24.811Z,22.37
2019-01-25T09:19:51.464Z,23.77
2019-01-25T09:22:18.205Z,24.40
2019-01-25T09:24:45.153Z,22.82
2019-01-25T09:27:12.103Z,21.35
2019-01-25T09:29:39.838Z,21.60
2019-01-25T09:32:06.271Z,20.45
2019-01-25T09:34:33.030Z,22.37
2019-01-25T09:36:59.419Z,20.08
2019-01-25T09:39:25.840Z,21.62
2019-01-25T09:41:52.134Z,19.87
2019-01-25T09:44:19.179Z,20.65
2019-01-25T09:46:45.586Z,23.40
2019-01-25T09:49:11.859Z,20.32
2019-01-25T09:51:38.164Z,23.32
2019-01-25T09:54:05.935Z,21.17
2019-01-25T09:56:33.709Z,19.48
2019-01-25T09:59:00.133Z,17.77
2019-01-25T10:01:27.792Z,19.30
2019-01-25T10:03:54.100Z,17.37
2019-01-25T10:06:21.181Z,17.12
2019-01-25T10:08:47.681Z,12.85
2019-01-25T10:11:31.331Z,14.15
2019-01-25T10:14:00.756Z,13.40
2019-01-25T10:16:28.735Z,11.75
2019-01-25T10:19:04.979Z,8.95
2019-01-25T10:21:31.488Z,11.18
2019-01-25T10:23:58.919Z,15.28
2019-01-25T10:26:25.499Z,6.75
2019-01-25T10:28:52.243Z,7.30
2019-01-25T10:31:19.307Z,13.53
2019-01-25T10:33:46.540Z,12.18
2019-01-25T10:36:13.168Z,16.73
2019-01-25T10:38:39.463Z,15.45
2019-01-25T10:41:06.220Z,14.43
2019-01-25T10:43:32.628Z,11.08
2019-01-25T10:45:59.622Z,12.30
2019-01-25T10:48:26.359Z,13.45
2019-01-25T10:50:53.031Z,11.73
2019-01-25T10:53:19.941Z,6.15
2019-01-25T10:55:47.240Z,5.72
2019-01-25T10:58:14.183Z,6.45
2019-01-25T11:00:41.803Z,7.92
2019-01-25T11:03:08.996Z,9.30
2019-01-25T11:05:35.584Z,11.38
2019-01-25T11:08:03.050Z,10.80
2019-01-25T11:10:29.950Z,9.35
2019-01-25T11:13:00.837Z,6.42
2019-01-25T11:15:26.475Z,11.65
2019-01-25T11:17:53.162Z,10.30
2019-01-25T11:20:21.367Z,11.80
2019-01-25T11:22:48.173Z,7.85
2019-01-25T11:25:16.562Z,13.45
2019-01-25T11:27:42.864Z,9.03
2019-01-25T11:30:10.259Z,7.60
2019-01-25T11:32:37.755Z,15.90
2019-01-25T11:35:04.943Z,12.60
2019-01-25T11:37:31.616Z,7.62
2019-01-25T11:39:58.271Z,6.80
2019-01-25T11:42:25.059Z,9.58
2019-01-25T11:44:51.702Z,7.53
2019-01-25T11:47:18.351Z,13.58
2019-01-25T11:49:44.727Z,8.28
2019-01-25T11:52:11.035Z,10.48
2019-01-25T11:54:37.969Z,15.45
2019-01-25T11:57:04.595Z,9.38
2019-01-25T11:59:31.360Z,9.40
2019-01-25T12:01:58.482Z,8.85
2019-01-25T12:04:25.334Z,9.33
2019-01-25T12:06:54.551Z,10.72
2019-01-25T12:09:21.739Z,14.87
2019-01-25T12:11:48.926Z,10.58
2019-01-25T12:14:15.378Z,7.33
2019-01-25T12:16:43.736Z,4.97
2019-01-25T12:19:10.678Z,13.45
2019-01-25T12:21:37.072Z,10.85
2019-01-25T12:24:03.934Z,10.82
2019-01-25T12:26:31.006Z,6.97
2019-01-25T12:28:57.329Z,6.45
2019-01-25T12:31:23.727Z,16.32
2019-01-25T12:33:51.231Z,13.15
2019-01-25T12:36:18.064Z,12.47
2019-01-25T12:38:44.992Z,7.22
2019-01-25T12:41:11.964Z,11.93
2019-01-25T12:43:38.903Z,15.05
2019-01-25T12:46:05.501Z,8.48
2019-01-25T12:48:32.233Z,11.83
2019-01-25T12:51:01.625Z,18.45
2019-01-25T12:53:28.355Z,17.85
2019-01-25T12:56:10.972Z,17.20
2019-01-25T12:58:37.272Z,18.17
2019-01-25T13:01:06.069Z,11.30
2019-01-25T13:03:32.743Z,10.32
2019-01-25T13:06:00.258Z,10.98
2019-01-25T13:08:27.389Z,7.30
2019-01-25T13:10:53.971Z,6.05
2019-01-25T13:13:20.407Z,11.75
2019-01-25T13:15:46.907Z,13.40
2019-01-25T13:18:13.313Z,12.90
2019-01-25T13:20:41.988Z,18.85
2019-01-25T13:23:08.958Z,14.43
2019-01-25T13:25:35.357Z,14.28
2019-01-25T13:28:02.346Z,7.85
2019-01-25T13:30:28.952Z,12.37
2019-01-25T13:32:55.872Z,16.00
2019-01-25T13:35:22.359Z,21.45
2019-01-25T13:38:10.827Z,13.40
2019-01-25T13:40:37.793Z,16.85
2019-01-25T13:43:04.297Z,17.17
2019-01-25T13:45:31.232Z,9.25
2019-01-25T13:47:58.996Z,12.75
2019-01-25T13:50:26.243Z,15.88
2019-01-25T13:52:53.470Z,10.85
2019-01-25T13:55:19.955Z,25.32
2019-01-25T13:57:46.477Z,16.12
2019-01-25T14:00:23.895Z,9.35
2019-01-25T14:02:51.799Z,13.50
2019-01-25T14:05:18.727Z,14.83
2019-01-25T14:07:45.518Z,15.95
2019-01-25T14:10:13.509Z,13.72
2019-01-25T14:12:40.221Z,14.15
2019-01-25T14:15:06.697Z,17.80
2019-01-25T14:17:33.945Z,12.95
2019-01-25T14:20:00.391Z,20.75
2019-01-25T14:22:27.393Z,14.47
2019-01-25T14:24:53.779Z,22.95
2019-01-25T14:27:20.180Z,8.23
2019-01-25T14:29:47.359Z,20.17
2019-01-25T14:32:15.185Z,19.35
2019-01-25T14:34:42.899Z,11.93
2019-01-25T14:37:09.303Z,12.05
2019-01-25T14:39:36.496Z,11.80
2019-01-25T14:42:03.895Z,12.50
2019-01-25T14:44:30.836Z,24.63
2019-01-25T14:46:57.519Z,20.72
2019-01-25T14:49:24.987Z,21.90
2019-01-25T14:51:53.100Z,13.10
2019-01-25T14:54:19.694Z,17.10
2019-01-25T14:56:46.568Z,9.23
2019-01-25T14:59:13.014Z,17.57
2019-01-25T15:01:41.640Z,18.42
2019-01-25T15:04:09.033Z,18.95
2019-01-25T15:06:35.351Z,14.98
2019-01-25T15:09:05.215Z,19.98
2019-01-25T15:11:33.521Z,14.90
2019-01-25T15:14:02.429Z,14.83
2019-01-25T15:16:29.479Z,16.65
2019-01-25T15:18:56.656Z,16.97
2019-01-25T15:21:23.072Z,17.12
2019-01-25T15:23:50.011Z,15.30
2019-01-25T15:26:21.962Z,14.85
2019-01-25T15:28:49.182Z,14.05
2019-01-25T15:31:15.656Z,15.03
2019-01-25T15:33:43.010Z,24.82
2019-01-25T15:36:09.659Z,17.98
2019-01-25T15:38:37.577Z,24.60
2019-01-25T15:41:04.588Z,22.85
2019-01-25T15:43:50.467Z,17.00
2019-01-25T15:46:17.047Z,22.00
2019-01-25T15:48:43.712Z,21.97
2019-01-25T15:51:30.739Z,15.08
2019-01-25T15:53:57.564Z,23.55
2019-01-25T15:56:24.207Z,30.90
2019-01-25T15:58:50.609Z,20.40
2019-01-25T16:01:17.731Z,18.65
2019-01-25T16:03:44.945Z,24.45
2019-01-25T16:06:11.345Z,22.13
2019-01-25T16:08:37.998Z,14.18
2019-01-25T16:11:04.875Z,27.02
2019-01-25T16:13:32.011Z,23.12
2019-01-25T16:15:58.768Z,28.40
2019-01-25T16:18:25.622Z,13.83
2019-01-25T16:20:52.408Z,20.12
2019-01-25T16:23:18.692Z,13.78
2019-01-25T16:25:45.607Z,27.55
2019-01-25T16:28:11.887Z,29.05
2019-01-25T16:30:38.308Z,23.05
2019-01-25T16:33:05.095Z,23.10
2019-01-25T16:35:31.723Z,25.85
2019-01-25T16:37:58.409Z,22.82
2019-01-25T16:40:25.190Z,24.45
2019-01-25T16:42:51.607Z,10.10
2019-01-25T16:45:19.499Z,18.77
2019-01-25T16:47:47.867Z,15.10
2019-01-25T16:50:29.749Z,22.70
2019-01-25T16:53:08.915Z,18.10
2019-01-25T16:55:35.295Z,21.73
2019-01-25T16:58:05.352Z,22.70
2019-01-25T17:00:33.348Z,19.20
2019-01-25T17:03:00.286Z,15.30
2019-01-25T17:05:27.111Z,21.60
2019-01-25T17:07:56.232Z,14.05
2019-01-25T17:10:23.383Z,21.62
2019-01-25T17:12:50.376Z,14.95
2019-01-25T17:15:17.676Z,18.87
2019-01-25T17:17:44.450Z,21.35
2019-01-25T17:20:29.572Z,20.80
2019-01-25T17:22:56.690Z,22.85
2019-01-25T17:25:23.074Z,12.40
2019-01-25T17:27:50.036Z,18.25
2019-01-25T17:30:23.618Z,12.35
2019-01-25T17:32:50.691Z,14.25
2019-01-25T17:35:17.136Z,13.68
2019-01-25T17:37:45.059Z,20.35
2019-01-25T17:40:13.138Z,16.48
2019-01-25T17:42:40.492Z,23.62
2019-01-25T17:45:08.047Z,24.43
2019-01-25T17:47:34.455Z,15.85
2019-01-25T17:50:01.923Z,19.90
2019-01-25T17:52:29.499Z,23.60
2019-01-25T17:54:56.430Z,16.80
2019-01-25T17:57:23.286Z,17.85
2019-01-25T17:59:50.539Z,24.00
2019-01-25T18:02:18.571Z,18.37
2019-01-25T18:04:46.199Z,19.85
2019-01-25T18:07:13.118Z,24.95
2019-01-25T18:09:39.608Z,21.25
2019-01-25T18:12:06.015Z,15.60
2019-01-25T18:14:32.711Z,23.55
2019-01-25T18:16:59.341Z,22.58
2019-01-25T18:19:26.634Z,21.95
2019-01-25T18:21:53.191Z,22.98
2019-01-25T18:24:21.673Z,9.78
2019-01-25T18:26:48.982Z,24.23
2019-01-25T18:29:20.504Z,13.62
2019-01-25T18:31:47.768Z,16.27
2019-01-25T18:34:14.094Z,11.75
2019-01-25T18:36:40.916Z,17.10
2019-01-25T18:39:07.581Z,23.10
2019-01-25T18:41:35.453Z,23.07
2019-01-25T18:44:02.160Z,13.05
2019-01-25T18:46:28.947Z,15.35
2019-01-25T18:48:55.959Z,18.48
2019-01-25T18:51:22.593Z,14.10
2019-01-25T18:53:49.027Z,15.98
2019-01-25T18:56:16.074Z,16.35
2019-01-25T18:58:43.851Z,20.00
2019-01-25T19:01:10.472Z,16.95
2019-01-25T19:03:36.827Z,27.82
2019-01-25T19:06:04.019Z,16.80
2019-01-25T19:08:30.448Z,23.05
2019-01-25T19:10:56.879Z,21.87
2019-01-25T19:13:23.335Z,23.50
2019-01-25T19:15:49.619Z,21.90
2019-01-25T19:18:16.627Z,22.73
2019-01-25T19:20:43.278Z,20.55
2019-01-25T19:23:09.670Z,20.32
2019-01-25T19:25:36.019Z,14.65
2019-01-25T19:28:02.429Z,17.52
2019-01-25T19:30:30.055Z,20.05
2019-01-25T19:32:56.672Z,18.15
2019-01-25T19:35:23.270Z,15.70
2019-01-25T19:37:49.762Z,20.43
2019-01-25T19:40:16.995Z,18.00
2019-01-25T19:42:44.484Z,22.37
2019-01-25T19:45:12.053Z,20.17
2019-01-25T19:47:39.980Z,18.52
2019-01-25T19:50:07.419Z,17.75
2019-01-25T19:52:33.836Z,21.68
2019-01-25T19:55:00.283Z,20.52
2019-01-25T19:57:27.236Z,21.35
2019-01-25T19:59:54.199Z,19.42
2019-01-25T20:02:21.154Z,15.15
2019-01-25T20:04:47.549Z,22.20
2019-01-25T20:07:14.327Z,22.50
2019-01-25T20:09:41.075Z,21.57
2019-01-25T20:12:07.491Z,16.00
2019-01-25T20:14:34.440Z,18.98
2019-01-25T20:17:00.839Z,18.07
2019-01-25T20:19:27.116Z,26.15
2019-01-25T20:21:53.664Z,24.35
2019-01-25T20:24:20.547Z,19.12
2019-01-25T20:26:46.968Z,21.80
2019-01-25T20:29:13.382Z,22.50
2019-01-25T20:31:40.179Z,25.05
2019-01-25T20:34:06.588Z,21.55
2019-01-25T20:36:37.537Z,23.15
2019-01-25T20:39:06.996Z,23.47
2019-01-25T20:41:35.116Z,24.72
2019-01-25T20:44:01.520Z,25.95
2019-01-25T20:46:29.123Z,25.72
2019-01-25T20:48:55.523Z,23.85
2019-01-25T20:51:22.505Z,24.25
2019-01-25T20:53:55.264Z,29.05
2019-01-25T20:56:24.604Z,25.10
2019-01-25T20:58:51.261Z,27.48
2019-01-25T21:01:17.952Z,28.80
2019-01-25T21:03:44.483Z,28.38
2019-01-25T21:06:11.271Z,28.60
2019-01-25T21:08:39.516Z,27.40
2019-01-25T21:11:06.152Z,26.02
2019-01-25T21:13:33.437Z,25.70
2019-01-25T21:16:00.431Z,29.75
2019-01-25T21:18:27.579Z,26.05
2019-01-25T21:20:54.007Z,27.55
2019-01-25T21:23:39.839Z,26.85
2019-01-25T21:26:07.652Z,31.10
2019-01-25T21:28:33.944Z,20.95
2019-01-25T21:31:00.328Z,25.02
2019-01-25T21:33:26.972Z,29.90
2019-01-25T21:35:54.259Z,28.35
2019-01-25T21:38:20.710Z,26.55
2019-01-25T21:40:47.500Z,30.00
2019-01-25T21:43:14.233Z,24.75
2019-01-25T21:45:43.390Z,27.70
2019-01-25T21:48:10.811Z,25.88
2019-01-25T21:50:38.840Z,30.65
2019-01-25T21:53:05.247Z,29.57
2019-01-25T21:55:32.147Z,27.30
2019-01-25T21:58:05.389Z,22.67
2019-01-25T22:00:29.712Z,26.80
2019-01-25T22:02:56.268Z,28.07
2019-01-25T22:05:47.991Z,25.88
2019-01-25T22:08:15.232Z,27.17
2019-01-25T22:10:44.016Z,26.50
2019-01-25T22:13:11.701Z,26.25
2019-01-25T22:15:38.402Z,27.85
2019-01-25T22:18:05.004Z,27.17
2019-01-25T22:20:31.415Z,21.75
2019-01-25T22:22:58.075Z,26.70
2019-01-25T22:25:24.606Z,30.48
2019-01-25T22:27:52.107Z,28.23
2019-01-25T22:30:19.331Z,29.12
2019-01-25T22:32:46.200Z,29.85
2019-01-25T22:35:13.145Z,30.05
2019-01-25T22:37:39.437Z,31.05
2019-01-25T22:40:07.488Z,29.63
2019-01-25T22:42:34.492Z,21.45
2019-01-25T22:45:00.800Z,24.12
2019-01-25T22:47:27.957Z,27.80
2019-01-25T22:49:54.622Z,29.57
2019-01-25T22:52:21.278Z,27.42
2019-01-25T22:54:47.664Z,28.12
2019-01-25T22:57:14.623Z,30.10
2019-01-25T22:59:41.373Z,28.98
2019-01-25T23:02:08.097Z,30.20
2019-01-25T23:04:38.595Z,26.30
2019-01-25T23:07:17.027Z,27.65
2019-01-25T23:09:51.112Z,24.40
2019-01-25T23:12:18.311Z,14.95
2019-01-25T23:14:45.334Z,21.00
2019-01-25T23:17:20.998Z,28.25
2019-01-25T23:19:47.415Z,23.38
2019-01-25T23:22:13.823Z,26.40
2019-01-25T23:24:40.440Z,24.57
2019-01-25T23:27:06.733Z,24.12
2019-01-25T23:29:33.984Z,26.07
2019-01-25T23:32:00.368Z,23.55
2019-01-25T23:34:30.131Z,27.32
2019-01-25T23:36:56.955Z,23.62
2019-01-25T23:39:23.347Z,29.92
2019-01-25T23:41:50.763Z,24.60
2019-01-25T23:44:17.731Z,26.60
2019-01-25T23:46:44.483Z,23.47
2019-01-25T23:49:11.178Z,29.00
2019-01-25T23:51:38.122Z,27.17
2019-01-25T23:54:05.577Z,26.73
2019-01-25T23:56:32.636Z,26.35
2019-01-25T23:58:58.943Z,24.47
